sensor_id;sensor_type;location;lat;lon;timestamp;pressure;altitude;pressure_sealevel;temperature;humidity
29815;BME280;16708;50.426;7.664;2024-01-11T00:00:01;999.58;;;-6.88;100.00
29815;BME280;16708;50.426;7.664;2024-01-11T00:04:55;999.59;;;-6.69;100.00
29815;BME280;16708;50.426;7.664;2024-01-11T00:09:49;999.56;;;-6.62;100.00
29815;BME280;16708;50.426;7.664;2024-01-11T00:14:44;999.62;;;-6.68;100.00
29815;BME280;16708;50.426;7.664;2024-01-11T00:19:38;999.64;;;-6.69;100.00
29815;BME280;16708;50.426;7.664;2024-01-11T00:24:32;999.63;;;-6.76;100.00
29815;BME280;16708;50.426;7.664;2024-01-11T00:39:07;999.66;;;-7.08;100.00
29815;BME280;16708;50.426;7.664;2024-01-11T00:44:02;999.69;;;-7.15;100.00
29815;BME280;16708;50.426;7.664;2024-01-11T00:48:56;999.72;;;-7.04;100.00
29815;BME280;16708;50.426;7.664;2024-01-11T00:53:51;999.71;;;-7.12;100.00
29815;BME280;16708;50.426;7.664;2024-01-11T00:58:45;999.75;;;-7.10;100.00
29815;BME280;16708;50.426;7.664;2024-01-11T01:13:20;999.83;;;-7.23;100.00
29815;BME280;16708;50.426;7.664;2024-01-11T01:27:57;999.92;;;-7.46;100.00
29815;BME280;16708;50.426;7.664;2024-01-11T01:42:34;999.91;;;-7.44;100.00
29815;BME280;16708;50.426;7.664;2024-01-11T01:57:11;1000.09;;;-7.54;100.00
29815;BME280;16708;50.426;7.664;2024-01-11T02:11:47;1000.05;;;-7.71;100.00
29815;BME280;16708;50.426;7.664;2024-01-11T02:16:41;1000.09;;;-7.73;100.00
29815;BME280;16708;50.426;7.664;2024-01-11T02:21:33;1000.03;;;-7.68;100.00
29815;BME280;16708;50.426;7.664;2024-01-11T02:26:27;1000.01;;;-7.73;100.00
29815;BME280;16708;50.426;7.664;2024-01-11T02:41:03;1000.14;;;-7.90;100.00
29815;BME280;16708;50.426;7.664;2024-01-11T02:55:40;1000.07;;;-7.91;100.00
29815;BME280;16708;50.426;7.664;2024-01-11T03:10:15;1000.11;;;-7.85;100.00
29815;BME280;16708;50.426;7.664;2024-01-11T03:15:09;1000.11;;;-7.87;100.00
29815;BME280;16708;50.426;7.664;2024-01-11T03:29:39;999.97;;;-8.19;100.00
29815;BME280;16708;50.426;7.664;2024-01-11T03:44:14;999.87;;;-8.18;100.00
29815;BME280;16708;50.426;7.664;2024-01-11T03:49:08;999.81;;;-8.02;100.00
29815;BME280;16708;50.426;7.664;2024-01-11T04:03:38;999.81;;;-8.30;100.00
29815;BME280;16708;50.426;7.664;2024-01-11T04:18:15;999.90;;;-8.08;100.00
29815;BME280;16708;50.426;7.664;2024-01-11T04:23:09;999.78;;;-8.18;100.00
29815;BME280;16708;50.426;7.664;2024-01-11T04:37:37;999.86;;;-8.27;100.00
29815;BME280;16708;50.426;7.664;2024-01-11T04:52:14;1000.04;;;-8.43;100.00
29815;BME280;16708;50.426;7.664;2024-01-11T05:06:42;1000.04;;;-8.54;100.00
29815;BME280;16708;50.426;7.664;2024-01-11T05:21:20;1000.12;;;-8.42;100.00
29815;BME280;16708;50.426;7.664;2024-01-11T05:35:56;1000.22;;;-8.57;100.00
29815;BME280;16708;50.426;7.664;2024-01-11T05:50:32;1000.28;;;-8.65;100.00
29815;BME280;16708;50.426;7.664;2024-01-11T06:05:09;1000.63;;;-8.73;100.00
29815;BME280;16708;50.426;7.664;2024-01-11T06:19:47;1000.81;;;-8.80;100.00
29815;BME280;16708;50.426;7.664;2024-01-11T06:34:33;1000.94;;;-9.01;100.00
29815;BME280;16708;50.426;7.664;2024-01-11T06:49:08;1001.17;;;-9.11;100.00
29815;BME280;16708;50.426;7.664;2024-01-11T07:03:45;1001.14;;;-9.04;100.00
29815;BME280;16708;50.426;7.664;2024-01-11T07:18:23;1001.22;;;-8.83;100.00
29815;BME280;16708;50.426;7.664;2024-01-11T07:33:01;1001.34;;;-8.81;100.00
29815;BME280;16708;50.426;7.664;2024-01-11T07:47:47;1001.01;;;-8.67;100.00
29815;BME280;16708;50.426;7.664;2024-01-11T08:02:21;1001.28;;;-8.60;100.00
29815;BME280;16708;50.426;7.664;2024-01-11T08:17:08;1001.36;;;-8.33;100.00
29815;BME280;16708;50.426;7.664;2024-01-11T08:31:43;1001.45;;;-7.62;100.00
29815;BME280;16708;50.426;7.664;2024-01-11T08:46:21;1001.59;;;-6.76;100.00
29815;BME280;16708;50.426;7.664;2024-01-11T08:51:16;1001.61;;;-6.54;100.00
29815;BME280;16708;50.426;7.664;2024-01-11T08:56:10;1001.55;;;-6.23;100.00
29815;BME280;16708;50.426;7.664;2024-01-11T09:10:48;1001.50;;;-5.16;100.00
29815;BME280;16708;50.426;7.664;2024-01-11T09:15:44;1001.38;;;-2.20;100.00
29815;BME280;16708;50.426;7.664;2024-01-11T09:20:39;1001.26;;;0.65;98.70
29815;BME280;16708;50.426;7.664;2024-01-11T09:25:34;1001.42;;;2.79;69.51
29815;BME280;16708;50.426;7.664;2024-01-11T09:30:30;1001.43;;;2.49;67.85
29815;BME280;16708;50.426;7.664;2024-01-11T09:35:25;1001.53;;;2.72;63.61
29815;BME280;16708;50.426;7.664;2024-01-11T09:40:19;1001.55;;;0.99;100.00
29815;BME280;16708;50.426;7.664;2024-01-11T09:45:13;1001.66;;;3.33;64.36
29815;BME280;16708;50.426;7.664;2024-01-11T09:50:08;1001.78;;;2.83;63.10
29815;BME280;16708;50.426;7.664;2024-01-11T09:55:03;1001.72;;;4.56;55.89
29815;BME280;16708;50.426;7.664;2024-01-11T09:59:58;1001.75;;;2.54;60.26
29815;BME280;16708;50.426;7.664;2024-01-11T10:04:53;1001.78;;;3.89;55.53
29815;BME280;16708;50.426;7.664;2024-01-11T10:09:48;1001.57;;;3.11;56.10
29815;BME280;16708;50.426;7.664;2024-01-11T10:19:38;1001.40;;;4.26;55.86
29815;BME280;16708;50.426;7.664;2024-01-11T10:29:27;1001.45;;;3.19;56.02
29815;BME280;16708;50.426;7.664;2024-01-11T10:34:22;1001.49;;;2.23;64.71
29815;BME280;16708;50.426;7.664;2024-01-11T10:39:17;1001.59;;;4.35;57.23
29815;BME280;16708;50.426;7.664;2024-01-11T10:44:11;1001.45;;;5.76;49.13
29815;BME280;16708;50.426;7.664;2024-01-11T10:49:06;1001.42;;;3.82;55.15
29815;BME280;16708;50.426;7.664;2024-01-11T10:54:01;1001.54;;;3.69;57.07
29815;BME280;16708;50.426;7.664;2024-01-11T10:58:55;1001.44;;;4.01;54.91
29815;BME280;16708;50.426;7.664;2024-01-11T11:03:49;1001.41;;;5.98;51.62
29815;BME280;16708;50.426;7.664;2024-01-11T11:08:44;1001.22;;;6.46;49.06
29815;BME280;16708;50.426;7.664;2024-01-11T11:13:39;1001.25;;;6.72;49.02
29815;BME280;16708;50.426;7.664;2024-01-11T11:18:34;1001.24;;;6.73;49.00
29815;BME280;16708;50.426;7.664;2024-01-11T11:23:28;1001.23;;;5.06;51.00
29815;BME280;16708;50.426;7.664;2024-01-11T11:28:23;1001.22;;;6.14;51.73
29815;BME280;16708;50.426;7.664;2024-01-11T11:33:18;1001.16;;;6.41;51.00
29815;BME280;16708;50.426;7.664;2024-01-11T11:38:12;1001.25;;;7.17;48.22
29815;BME280;16708;50.426;7.664;2024-01-11T11:43:07;1001.23;;;7.85;46.26
29815;BME280;16708;50.426;7.664;2024-01-11T11:52:55;1001.17;;;8.30;44.27
29815;BME280;16708;50.426;7.664;2024-01-11T11:57:50;1001.22;;;5.55;51.48
29815;BME280;16708;50.426;7.664;2024-01-11T12:02:44;1001.15;;;8.55;45.57
29815;BME280;16708;50.426;7.664;2024-01-11T12:07:38;1001.28;;;9.66;42.13
29815;BME280;16708;50.426;7.664;2024-01-11T12:12:35;1001.17;;;9.54;41.25
29815;BME280;16708;50.426;7.664;2024-01-11T12:17:28;1001.11;;;8.73;42.11
29815;BME280;16708;50.426;7.664;2024-01-11T12:22:21;1001.11;;;10.27;39.97
29815;BME280;16708;50.426;7.664;2024-01-11T12:27:15;1001.19;;;10.99;39.18
29815;BME280;16708;50.426;7.664;2024-01-11T12:32:09;1001.19;;;9.62;39.38
29815;BME280;16708;50.426;7.664;2024-01-11T12:37:04;1001.09;;;10.84;38.54
29815;BME280;16708;50.426;7.664;2024-01-11T12:41:59;1001.03;;;10.87;38.04
29815;BME280;16708;50.426;7.664;2024-01-11T12:46:53;1000.86;;;10.89;37.51
29815;BME280;16708;50.426;7.664;2024-01-11T12:51:47;1000.78;;;9.57;40.12
29815;BME280;16708;50.426;7.664;2024-01-11T13:01:35;1000.84;;;9.13;41.13
29815;BME280;16708;50.426;7.664;2024-01-11T13:06:29;1000.73;;;8.82;41.28
29815;BME280;16708;50.426;7.664;2024-01-11T13:11:24;1000.89;;;9.13;40.95
29815;BME280;16708;50.426;7.664;2024-01-11T13:16:18;1000.83;;;9.40;40.24
29815;BME280;16708;50.426;7.664;2024-01-11T13:21:12;1000.85;;;8.22;41.69
29815;BME280;16708;50.426;7.664;2024-01-11T13:26:06;1000.97;;;9.13;41.07
29815;BME280;16708;50.426;7.664;2024-01-11T13:31:01;1000.96;;;9.71;39.06
29815;BME280;16708;50.426;7.664;2024-01-11T13:35:55;1001.03;;;8.23;40.68
29815;BME280;16708;50.426;7.664;2024-01-11T13:40:47;1001.02;;;8.49;42.25
29815;BME280;16708;50.426;7.664;2024-01-11T13:45:41;1001.05;;;8.24;42.15
29815;BME280;16708;50.426;7.664;2024-01-11T13:50:35;1001.18;;;8.95;40.82
29815;BME280;16708;50.426;7.664;2024-01-11T13:55:29;1001.09;;;10.57;39.13
29815;BME280;16708;50.426;7.664;2024-01-11T14:00:23;1000.99;;;11.11;37.07
29815;BME280;16708;50.426;7.664;2024-01-11T14:05:17;1000.92;;;10.81;37.08
29815;BME280;16708;50.426;7.664;2024-01-11T14:10:11;1000.93;;;9.20;39.83
29815;BME280;16708;50.426;7.664;2024-01-11T14:15:02;1000.79;;;10.18;39.17
29815;BME280;16708;50.426;7.664;2024-01-11T14:19:57;1000.80;;;9.14;40.29
29815;BME280;16708;50.426;7.664;2024-01-11T14:24:51;1000.84;;;8.74;41.27
29815;BME280;16708;50.426;7.664;2024-01-11T14:29:44;1000.89;;;7.59;44.12
29815;BME280;16708;50.426;7.664;2024-01-11T14:34:37;1000.84;;;8.37;42.13
29815;BME280;16708;50.426;7.664;2024-01-11T14:39:32;1000.98;;;8.14;42.67
29815;BME280;16708;50.426;7.664;2024-01-11T14:44:25;1000.89;;;8.62;41.55
29815;BME280;16708;50.426;7.664;2024-01-11T14:49:19;1000.90;;;7.63;43.57
29815;BME280;16708;50.426;7.664;2024-01-11T14:54:13;1000.81;;;5.35;47.75
29815;BME280;16708;50.426;7.664;2024-01-11T14:59:06;1000.95;;;4.03;53.07
29815;BME280;16708;50.426;7.664;2024-01-11T15:03:59;1000.83;;;5.83;49.79
29815;BME280;16708;50.426;7.664;2024-01-11T15:08:52;1001.00;;;4.20;54.30
29815;BME280;16708;50.426;7.664;2024-01-11T15:13:46;1001.00;;;2.08;77.79
29815;BME280;16708;50.426;7.664;2024-01-11T15:18:39;1000.88;;;1.26;97.68
29815;BME280;16708;50.426;7.664;2024-01-11T15:23:32;1000.79;;;0.63;100.00
29815;BME280;16708;50.426;7.664;2024-01-11T15:28:25;1000.90;;;0.31;100.00
29815;BME280;16708;50.426;7.664;2024-01-11T15:33:18;1000.83;;;-0.15;100.00
29815;BME280;16708;50.426;7.664;2024-01-11T15:38:12;1000.93;;;-0.55;100.00
29815;BME280;16708;50.426;7.664;2024-01-11T15:43:05;1000.94;;;-0.49;100.00
29815;BME280;16708;50.426;7.664;2024-01-11T15:47:59;1001.09;;;-0.68;100.00
29815;BME280;16708;50.426;7.664;2024-01-11T15:52:53;1001.23;;;-0.82;100.00
29815;BME280;16708;50.426;7.664;2024-01-11T15:57:47;1001.20;;;-1.04;100.00
29815;BME280;16708;50.426;7.664;2024-01-11T16:02:40;1001.20;;;-1.46;100.00
29815;BME280;16708;50.426;7.664;2024-01-11T16:07:34;1001.29;;;-1.69;100.00
29815;BME280;16708;50.426;7.664;2024-01-11T16:12:28;1001.32;;;-1.74;100.00
29815;BME280;16708;50.426;7.664;2024-01-11T16:17:22;1001.34;;;-1.91;100.00
29815;BME280;16708;50.426;7.664;2024-01-11T16:22:15;1001.49;;;-2.16;100.00
29815;BME280;16708;50.426;7.664;2024-01-11T16:27:07;1001.38;;;-2.25;100.00
29815;BME280;16708;50.426;7.664;2024-01-11T16:32:01;1001.47;;;-2.33;100.00
29815;BME280;16708;50.426;7.664;2024-01-11T16:36:55;1001.59;;;-2.47;100.00
29815;BME280;16708;50.426;7.664;2024-01-11T16:41:49;1001.66;;;-2.64;100.00
29815;BME280;16708;50.426;7.664;2024-01-11T16:46:43;1001.67;;;-2.72;100.00
29815;BME280;16708;50.426;7.664;2024-01-11T16:56:30;1001.68;;;-2.95;100.00
29815;BME280;16708;50.426;7.664;2024-01-11T17:01:24;1001.71;;;-2.97;100.00
29815;BME280;16708;50.426;7.664;2024-01-11T17:06:17;1001.77;;;-3.04;100.00
29815;BME280;16708;50.426;7.664;2024-01-11T17:11:11;1001.78;;;-3.05;100.00
29815;BME280;16708;50.426;7.664;2024-01-11T17:16:05;1001.82;;;-3.09;100.00
29815;BME280;16708;50.426;7.664;2024-01-11T17:20:59;1001.75;;;-3.07;100.00
29815;BME280;16708;50.426;7.664;2024-01-11T17:25:53;1001.92;;;-3.14;100.00
29815;BME280;16708;50.426;7.664;2024-01-11T17:30:46;1001.90;;;-3.12;100.00
29815;BME280;16708;50.426;7.664;2024-01-11T17:35:40;1001.92;;;-3.22;100.00
29815;BME280;16708;50.426;7.664;2024-01-11T17:40:34;1001.85;;;-3.25;100.00
29815;BME280;16708;50.426;7.664;2024-01-11T17:45:27;1001.87;;;-3.32;100.00
29815;BME280;16708;50.426;7.664;2024-01-11T17:50:20;1001.85;;;-3.34;100.00
29815;BME280;16708;50.426;7.664;2024-01-11T17:55:13;1001.85;;;-3.34;100.00
29815;BME280;16708;50.426;7.664;2024-01-11T18:00:07;1001.96;;;-3.40;100.00
29815;BME280;16708;50.426;7.664;2024-01-11T18:04:58;1001.96;;;-3.43;100.00
29815;BME280;16708;50.426;7.664;2024-01-11T18:09:52;1001.86;;;-3.40;100.00
29815;BME280;16708;50.426;7.664;2024-01-11T18:14:45;1002.00;;;-3.35;100.00
29815;BME280;16708;50.426;7.664;2024-01-11T18:19:36;1001.92;;;-3.51;100.00
29815;BME280;16708;50.426;7.664;2024-01-11T18:24:29;1001.83;;;-3.63;100.00
29815;BME280;16708;50.426;7.664;2024-01-11T18:29:23;1001.74;;;-3.70;100.00
29815;BME280;16708;50.426;7.664;2024-01-11T18:34:15;1001.70;;;-3.72;100.00
29815;BME280;16708;50.426;7.664;2024-01-11T18:39:10;1001.77;;;-3.81;100.00
29815;BME280;16708;50.426;7.664;2024-01-11T18:44:01;1001.79;;;-3.70;100.00
29815;BME280;16708;50.426;7.664;2024-01-11T18:48:55;1001.64;;;-3.77;100.00
29815;BME280;16708;50.426;7.664;2024-01-11T18:53:47;1001.74;;;-3.77;100.00
29815;BME280;16708;50.426;7.664;2024-01-11T18:58:38;1001.80;;;-3.84;100.00
29815;BME280;16708;50.426;7.664;2024-01-11T19:03:31;1001.89;;;-3.74;100.00
29815;BME280;16708;50.426;7.664;2024-01-11T19:08:22;1001.98;;;-3.63;100.00
29815;BME280;16708;50.426;7.664;2024-01-11T19:13:16;1002.00;;;-3.43;100.00
29815;BME280;16708;50.426;7.664;2024-01-11T19:18:10;1001.99;;;-3.52;100.00
29815;BME280;16708;50.426;7.664;2024-01-11T19:23:03;1002.02;;;-3.62;100.00
29815;BME280;16708;50.426;7.664;2024-01-11T19:27:57;1002.07;;;-3.75;100.00
29815;BME280;16708;50.426;7.664;2024-01-11T19:32:49;1002.14;;;-3.96;100.00
29815;BME280;16708;50.426;7.664;2024-01-11T19:37:43;1002.22;;;-4.12;100.00
29815;BME280;16708;50.426;7.664;2024-01-11T19:42:37;1002.20;;;-4.28;100.00
29815;BME280;16708;50.426;7.664;2024-01-11T19:47:27;1002.30;;;-4.34;100.00
29815;BME280;16708;50.426;7.664;2024-01-11T19:52:21;1002.27;;;-4.33;100.00
29815;BME280;16708;50.426;7.664;2024-01-11T19:57:12;1002.34;;;-4.36;100.00
29815;BME280;16708;50.426;7.664;2024-01-11T20:02:05;1002.29;;;-4.29;100.00
29815;BME280;16708;50.426;7.664;2024-01-11T20:06:58;1002.45;;;-4.32;100.00
29815;BME280;16708;50.426;7.664;2024-01-11T20:11:52;1002.41;;;-4.44;100.00
29815;BME280;16708;50.426;7.664;2024-01-11T20:16:44;1002.36;;;-4.64;100.00
29815;BME280;16708;50.426;7.664;2024-01-11T20:21:37;1002.28;;;-4.69;100.00
29815;BME280;16708;50.426;7.664;2024-01-11T20:26:30;1002.34;;;-4.75;100.00
29815;BME280;16708;50.426;7.664;2024-01-11T20:31:22;1002.44;;;-4.85;100.00
29815;BME280;16708;50.426;7.664;2024-01-11T20:36:16;1002.27;;;-4.86;100.00
29815;BME280;16708;50.426;7.664;2024-01-11T20:41:09;1002.25;;;-4.94;100.00
29815;BME280;16708;50.426;7.664;2024-01-11T20:46:01;1002.28;;;-4.91;100.00
29815;BME280;16708;50.426;7.664;2024-01-11T20:50:55;1002.29;;;-4.96;100.00
29815;BME280;16708;50.426;7.664;2024-01-11T20:55:48;1002.42;;;-4.98;100.00
29815;BME280;16708;50.426;7.664;2024-01-11T21:00:42;1002.37;;;-5.02;100.00
29815;BME280;16708;50.426;7.664;2024-01-11T21:05:34;1002.37;;;-5.05;100.00
29815;BME280;16708;50.426;7.664;2024-01-11T21:10:29;1002.33;;;-5.00;100.00
29815;BME280;16708;50.426;7.664;2024-01-11T21:15:23;1002.27;;;-5.13;100.00
29815;BME280;16708;50.426;7.664;2024-01-11T21:20:17;1002.22;;;-5.19;100.00
29815;BME280;16708;50.426;7.664;2024-01-11T21:25:11;1002.06;;;-5.31;100.00
29815;BME280;16708;50.426;7.664;2024-01-11T21:30:06;1002.37;;;-5.36;100.00
29815;BME280;16708;50.426;7.664;2024-01-11T21:35:00;1002.41;;;-5.39;100.00
29815;BME280;16708;50.426;7.664;2024-01-11T21:39:54;1002.55;;;-5.34;100.00
29815;BME280;16708;50.426;7.664;2024-01-11T21:44:48;1002.64;;;-5.33;100.00
29815;BME280;16708;50.426;7.664;2024-01-11T21:49:42;1002.50;;;-5.37;100.00
29815;BME280;16708;50.426;7.664;2024-01-11T21:54:36;1002.50;;;-5.40;100.00
29815;BME280;16708;50.426;7.664;2024-01-11T21:59:30;1002.50;;;-5.44;100.00
29815;BME280;16708;50.426;7.664;2024-01-11T22:04:25;1002.37;;;-5.62;100.00
29815;BME280;16708;50.426;7.664;2024-01-11T22:09:18;1002.36;;;-5.60;100.00
29815;BME280;16708;50.426;7.664;2024-01-11T22:14:10;1002.33;;;-5.69;100.00
29815;BME280;16708;50.426;7.664;2024-01-11T22:19:04;1002.45;;;-5.70;100.00
29815;BME280;16708;50.426;7.664;2024-01-11T22:23:59;1002.40;;;-5.71;100.00
29815;BME280;16708;50.426;7.664;2024-01-11T22:28:53;1002.43;;;-5.66;100.00
29815;BME280;16708;50.426;7.664;2024-01-11T22:33:47;1002.41;;;-5.67;100.00
29815;BME280;16708;50.426;7.664;2024-01-11T22:38:40;1002.45;;;-5.80;100.00
29815;BME280;16708;50.426;7.664;2024-01-11T22:43:34;1002.45;;;-5.83;100.00
29815;BME280;16708;50.426;7.664;2024-01-11T22:48:28;1002.39;;;-5.88;100.00
29815;BME280;16708;50.426;7.664;2024-01-11T22:53:21;1002.50;;;-5.82;100.00
29815;BME280;16708;50.426;7.664;2024-01-11T22:58:15;1002.42;;;-5.92;100.00
29815;BME280;16708;50.426;7.664;2024-01-11T23:03:07;1002.46;;;-5.92;100.00
29815;BME280;16708;50.426;7.664;2024-01-11T23:08:01;1002.32;;;-5.85;100.00
29815;BME280;16708;50.426;7.664;2024-01-11T23:12:55;1002.38;;;-5.86;100.00
29815;BME280;16708;50.426;7.664;2024-01-11T23:17:48;1002.30;;;-5.89;100.00
29815;BME280;16708;50.426;7.664;2024-01-11T23:22:42;1002.27;;;-5.95;100.00
29815;BME280;16708;50.426;7.664;2024-01-11T23:27:34;1002.48;;;-6.02;100.00
29815;BME280;16708;50.426;7.664;2024-01-11T23:32:29;1002.36;;;-6.12;100.00
29815;BME280;16708;50.426;7.664;2024-01-11T23:37:23;1002.23;;;-6.22;100.00
29815;BME280;16708;50.426;7.664;2024-01-11T23:42:16;1002.34;;;-6.02;100.00
29815;BME280;16708;50.426;7.664;2024-01-11T23:47:11;1002.38;;;-6.07;100.00
29815;BME280;16708;50.426;7.664;2024-01-11T23:52:05;1002.41;;;-6.07;100.00
29815;BME280;16708;50.426;7.664;2024-01-11T23:57:00;1002.39;;;-6.21;100.00
